Terminal Aerodrome Forecast
Issued by NWS

Home | Current Version | Previous Version | Text Only | Print | Product List | Glossary Off
Versions: 1 2 3 4 5 6 7 8 9 10 11 12 13 14 15 16 17 18 19 20 21 22 23 24 25 26 27 28

458
FTUS43 KLOT 221125
TAFMDW
TAF
KMDW 221125Z 2212/2312 04015G21KT P6SM BKN035
     FM221500 05012KT P6SM BKN035
     FM221900 07010KT P6SM FEW035 SCT250
     FM230100 10008KT P6SM SCT150 BKN250
     FM230800 14007KT P6SM OVC090=

USA.gov is the U.S. government's official web portal to all federal, state and local government web resources and services.